Time;durP1;ratioP1;P1;durP2;ratioP2;P2;SDS_P1;SDS_P2;PMS_P1;PMS_P2;Temp;Humidity;BMP_temperature;BMP_pressure;BME280_temperature;BME280_humidity;BME280_pressure;Samples;Min_cycle;Max_cycle;Signal;HPM_P1;HPM_P2
2023/02/21 02:14:55;;;;;;;12.25;10.23;;;28.10;69.90;;;;;;5046772;28;20071;-53
2023/02/21 02:17:39;;;;;;;11.88;9.75;;;28.00;69.80;;;;;;5047009;28;20033;-47
2023/02/21 02:20:30;;;;;;;13.70;9.63;;;28.10;69.70;;;;;;5049630;28;20029;-51
2023/02/21 02:23:09;;;;;;;12.50;9.40;;;28.10;69.70;;;;;;5057751;28;20204;-49
2023/02/21 02:26:14;;;;;;;12.57;9.40;;;28.10;69.60;;;;;;5066821;28;20037;-48
2023/02/21 02:29:24;;;;;;;9.90;8.90;;;28.10;69.60;;;;;;5067076;28;20051;-53
2023/02/21 02:32:34;;;;;;;12.02;9.88;;;28.10;69.50;;;;;;5058261;28;20326;-54
2023/02/21 02:35:08;;;;;;;10.95;9.70;;;28.10;69.40;;;;;;5045466;28;20339;-47
2023/02/21 02:38:02;;;;;;;10.48;9.35;;;28.10;69.40;;;;;;5066364;28;20028;-50
2023/02/21 02:40:42;;;;;;;12.48;9.57;;;28.10;69.40;;;;;;5066441;28;20032;-51
2023/02/21 02:43:48;;;;;;;11.30;9.43;;;28.00;69.30;;;;;;5048760;28;20017;-52
2023/02/21 02:46:23;;;;;;;11.35;9.35;;;28.10;69.20;;;;;;4988807;28;20219;-47
2023/02/21 02:48:54;;;;;;;10.32;9.20;;;28.00;69.00;;;;;;5057437;28;20392;-48
2023/02/21 02:51:21;;;;;;;10.93;8.80;;;28.00;69.00;;;;;;5066462;28;20025;-47
2023/02/21 02:53:48;;;;;;;11.00;8.77;;;28.00;69.00;;;;;;5066233;28;20017;-48
2023/02/21 02:56:16;;;;;;;11.75;9.15;;;28.00;68.90;;;;;;5066275;28;20025;-54
2023/02/21 02:58:53;;;;;;;9.95;8.95;;;28.00;68.80;;;;;;5065708;28;20037;-51
2023/02/21 03:01:48;;;;;;;11.02;9.55;;;28.00;68.80;;;;;;5066500;28;20041;-47
2023/02/21 03:04:44;;;;;;;12.05;9.90;;;28.00;68.80;;;;;;5066045;28;20138;-59
2023/02/21 03:07:33;;;;;;;9.80;8.80;;;28.00;68.80;;;;;;5053609;28;20036;-60
2023/02/21 03:10:09;;;;;;;11.38;9.20;;;28.00;68.70;;;;;;5066027;28;20328;-49
2023/02/21 03:12:50;;;;;;;11.05;9.45;;;28.00;68.70;;;;;;5065819;28;20064;-55
2023/02/21 03:15:21;;;;;;;11.77;9.40;;;28.00;68.70;;;;;;5065739;28;20029;-52
2023/02/21 03:17:58;;;;;;;10.70;8.90;;;27.90;68.60;;;;;;5066119;28;20020;-51
2023/02/21 03:20:26;;;;;;;12.90;9.02;;;28.00;68.60;;;;;;5065892;28;20086;-50
2023/02/21 03:22:55;;;;;;;13.95;9.40;;;28.00;68.60;;;;;;5065622;28;20016;-50
2023/02/21 03:25:23;;;;;;;10.00;8.88;;;28.00;68.60;;;;;;5065756;28;20029;-50
2023/02/21 03:27:52;;;;;;;16.90;9.43;;;28.00;68.40;;;;;;5065766;28;20028;-47
2023/02/21 03:30:19;;;;;;;10.90;9.65;;;28.00;68.40;;;;;;5065803;28;20032;-52
2023/02/21 03:32:51;;;;;;;12.65;9.27;;;27.90;68.30;;;;;;5066121;28;20028;-52
2023/02/21 03:35:19;;;;;;;16.85;9.18;;;28.00;68.40;;;;;;5065335;28;20040;-54
2023/02/21 03:37:52;;;;;;;9.77;8.77;;;27.90;68.40;;;;;;5065326;28;20028;-52
2023/02/21 03:40:28;;;;;;;10.98;8.73;;;27.90;68.40;;;;;;5065459;28;20224;-50
2023/02/21 03:42:56;;;;;;;10.13;8.93;;;27.90;68.40;;;;;;5065628;28;20080;-49
2023/02/21 03:45:23;;;;;;;10.05;8.80;;;27.90;68.40;;;;;;5065203;28;20032;-51
2023/02/21 03:47:50;;;;;;;11.10;8.75;;;27.90;68.20;;;;;;5065498;28;20091;-52
2023/02/21 03:50:16;;;;;;;9.68;8.45;;;27.90;68.30;;;;;;5064975;28;20021;-51
2023/02/21 03:52:43;;;;;;;10.30;8.63;;;27.90;68.20;;;;;;5066168;28;20346;-52
2023/02/21 03:55:10;;;;;;;9.57;8.60;;;27.80;68.20;;;;;;5065104;28;20317;-48
2023/02/21 03:57:37;;;;;;;13.40;8.60;;;27.80;68.20;;;;;;5065018;28;20367;-56
2023/02/21 04:00:04;;;;;;;10.40;9.00;;;27.80;68.40;;;;;;5065279;28;20029;-55
2023/02/21 04:02:30;;;;;;;10.65;8.73;;;27.80;68.40;;;;;;5065001;28;20040;-53
2023/02/21 04:04:57;;;;;;;9.57;8.18;;;27.80;68.50;;;;;;5065007;28;20029;-55
2023/02/21 04:07:25;;;;;;;10.48;8.35;;;27.80;68.60;;;;;;5065498;28;20033;-49
2023/02/21 04:09:51;;;;;;;9.65;8.00;;;27.80;68.30;;;;;;5065375;28;20057;-49
2023/02/21 04:12:18;;;;;;;9.55;8.50;;;27.80;68.20;;;;;;5064545;28;20076;-52
2023/02/21 04:14:44;;;;;;;12.00;8.95;;;27.80;68.40;;;;;;5064872;28;20021;-48
2023/02/21 04:17:11;;;;;;;11.00;7.65;;;27.80;68.20;;;;;;5055889;28;20037;-53
2023/02/21 04:19:38;;;;;;;9.93;7.82;;;27.80;68.30;;;;;;5044673;28;20029;-50
2023/02/21 04:22:05;;;;;;;9.27;7.63;;;27.70;68.20;;;;;;5044532;28;20036;-51
2023/02/21 04:24:32;;;;;;;9.57;8.30;;;27.70;68.30;;;;;;5044641;28;20030;-49
2023/02/21 04:26:58;;;;;;;10.20;7.72;;;27.70;68.10;;;;;;5044200;28;20031;-53
2023/02/21 04:29:25;;;;;;;10.75;8.32;;;27.70;68.10;;;;;;5044381;28;20294;-48
2023/02/21 04:31:52;;;;;;;9.93;8.43;;;27.70;68.00;;;;;;5044358;28;20037;-54
2023/02/21 04:34:20;;;;;;;9.93;8.27;;;27.70;68.00;;;;;;5044230;28;20072;-48
2023/02/21 04:36:47;;;;;;;11.20;8.55;;;27.70;68.10;;;;;;5044275;28;20033;-53
2023/02/21 04:39:14;;;;;;;8.75;7.85;;;27.70;68.10;;;;;;5044333;28;20032;-55
2023/02/21 04:41:40;;;;;;;8.43;7.63;;;27.70;67.90;;;;;;5043981;28;20033;-54
2023/02/21 04:44:07;;;;;;;12.50;8.13;;;27.70;68.10;;;;;;5044368;28;20029;-48
2023/02/21 04:46:34;;;;;;;10.23;7.75;;;27.60;68.10;;;;;;5026500;28;20237;-47
2023/02/21 04:49:00;;;;;;;9.23;8.23;;;27.70;68.10;;;;;;5026312;28;20022;-49
2023/02/21 04:51:27;;;;;;;8.30;7.50;;;27.60;67.90;;;;;;5044007;28;20025;-51
2023/02/21 04:53:54;;;;;;;9.88;7.93;;;27.70;68.00;;;;;;5044034;28;20033;-54
2023/02/21 04:56:23;;;;;;;9.13;8.23;;;27.60;67.80;;;;;;5043767;28;20041;-55
2023/02/21 04:58:50;;;;;;;9.77;7.97;;;27.60;67.70;;;;;;5043988;28;20047;-48
2023/02/21 05:01:18;;;;;;;10.50;7.90;;;27.60;67.90;;;;;;5043961;28;20205;-49
2023/02/21 05:03:45;;;;;;;7.95;7.15;;;27.60;67.50;;;;;;5043650;28;20032;-49
2023/02/21 05:06:22;;;;;;;10.82;7.50;;;27.60;67.50;;;;;;5043747;28;20333;-50
2023/02/21 05:08:49;;;;;;;8.93;8.02;;;27.60;67.40;;;;;;5043905;28;20029;-50
2023/02/21 05:11:16;;;;;;;8.45;7.55;;;27.60;67.30;;;;;;5043543;28;20055;-48
2023/02/21 05:13:43;;;;;;;9.90;7.22;;;27.60;67.20;;;;;;5043676;28;20033;-49
2023/02/21 05:16:10;;;;;;;8.80;7.68;;;27.50;67.30;;;;;;5043934;28;20034;-51
2023/02/21 05:18:40;;;;;;;9.15;7.60;;;27.60;67.40;;;;;;5043577;28;20037;-52
2023/02/21 05:21:07;;;;;;;8.02;7.22;;;27.60;68.00;;;;;;5043326;28;20068;-47
2023/02/21 05:23:34;;;;;;;7.80;7.00;;;27.60;67.20;;;;;;5043707;28;20039;-54
2023/02/21 05:26:07;;;;;;;9.68;7.35;;;27.60;67.00;;;;;;5043509;28;20037;-48
2023/02/21 05:28:34;;;;;;;9.35;7.15;;;27.50;66.90;;;;;;5026056;28;20384;-51
2023/02/21 05:31:01;;;;;;;8.43;7.63;;;27.60;67.20;;;;;;5058450;28;20029;-51
2023/02/21 05:33:28;;;;;;;8.43;7.40;;;27.50;66.90;;;;;;5063380;28;20324;-51
2023/02/21 05:35:55;;;;;;;8.85;7.40;;;27.50;67.10;;;;;;5063634;28;20033;-52
2023/02/21 05:38:23;;;;;;;8.60;7.53;;;27.50;67.00;;;;;;5063559;28;20104;-52
2023/02/21 05:40:50;;;;;;;7.93;6.85;;;27.50;67.10;;;;;;5063932;28;20044;-49
2023/02/21 05:43:16;;;;;;;8.52;7.25;;;27.50;67.10;;;;;;5063422;28;20039;-49
2023/02/21 05:45:43;;;;;;;7.80;7.03;;;27.50;67.20;;;;;;5063739;28;20104;-50
2023/02/21 05:48:09;;;;;;;9.70;7.65;;;27.50;67.00;;;;;;5063307;28;20033;-46
2023/02/21 05:50:38;;;;;;;8.52;7.70;;;27.50;66.90;;;;;;5063878;28;20021;-50
2023/02/21 05:53:05;;;;;;;8.55;7.40;;;27.50;66.90;;;;;;5063034;28;20121;-48
2023/02/21 05:55:32;;;;;;;8.15;6.88;;;27.50;66.90;;;;;;5063709;28;20028;-52
2023/02/21 05:57:59;;;;;;;9.57;7.25;;;27.50;66.90;;;;;;5063199;28;20052;-50
2023/02/21 06:00:28;;;;;;;8.32;6.88;;;27.50;66.80;;;;;;5063726;28;20216;-48
2023/02/21 06:02:56;;;;;;;8.65;6.80;;;27.50;66.80;;;;;;5063090;28;20024;-49
2023/02/21 06:05:23;;;;;;;8.18;7.38;;;27.40;66.90;;;;;;5063445;28;20209;-49
2023/02/21 06:07:50;;;;;;;7.78;7.03;;;27.50;67.10;;;;;;5063289;28;20113;-48
2023/02/21 06:10:17;;;;;;;7.47;6.78;;;27.40;67.10;;;;;;5062917;28;20013;-51
2023/02/21 06:12:44;;;;;;;8.02;7.28;;;27.40;66.90;;;;;;5063124;28;20060;-48
2023/02/21 06:15:14;;;;;;;8.07;7.28;;;27.40;66.90;;;;;;5063397;28;20123;-48
2023/02/21 06:17:41;;;;;;;10.35;6.80;;;27.40;66.90;;;;;;5062981;28;20088;-52
2023/02/21 06:20:13;;;;;;;8.55;7.47;;;27.40;67.10;;;;;;5063393;28;20029;-46
2023/02/21 06:22:39;;;;;;;7.82;7.03;;;27.40;67.00;;;;;;5062919;28;20048;-53
2023/02/21 06:25:06;;;;;;;8.02;7.05;;;27.40;67.00;;;;;;5063317;28;20032;-49
2023/02/21 06:27:33;;;;;;;8.90;7.20;;;27.40;67.00;;;;;;5062924;28;20020;-47
2023/02/21 06:29:59;;;;;;;8.80;6.88;;;27.40;67.00;;;;;;5063258;28;20029;-47
2023/02/21 06:32:26;;;;;;;9.52;7.00;;;27.40;67.00;;;;;;5063118;28;20060;-49
2023/02/21 06:34:53;;;;;;;7.60;6.80;;;27.40;67.10;;;;;;5066699;28;20066;-49
2023/02/21 06:37:19;;;;;;;8.60;7.28;;;27.40;67.10;;;;;;5066420;28;20029;-53
2023/02/21 06:39:46;;;;;;;9.00;7.30;;;27.40;67.10;;;;;;5066570;28;20020;-48
2023/02/21 06:42:14;;;;;;;8.60;7.22;;;27.30;67.10;;;;;;5066493;28;20261;-48
2023/02/21 06:44:48;;;;;;;9.57;6.93;;;27.30;67.00;;;;;;5066546;28;20024;-49
2023/02/21 06:47:15;;;;;;;7.63;6.93;;;27.30;67.10;;;;;;5066268;28;20099;-49
2023/02/21 06:49:42;;;;;;;8.10;7.28;;;27.30;67.20;;;;;;5066513;28;20021;-48
2023/02/21 06:52:10;;;;;;;9.75;7.18;;;27.30;67.10;;;;;;5066186;28;20025;-49
2023/02/21 06:54:37;;;;;;;7.07;6.38;;;27.30;67.30;;;;;;5066454;28;20033;-46
2023/02/21 06:57:04;;;;;;;9.05;6.88;;;27.30;67.40;;;;;;5066068;28;20025;-47
2023/02/21 06:59:31;;;;;;;10.70;7.35;;;27.30;67.40;;;;;;5066053;28;20033;-48
2023/02/21 07:01:57;;;;;;;7.63;6.82;;;27.30;67.50;;;;;;5066240;28;20036;-51
2023/02/21 07:04:25;;;;;;;7.82;7.07;;;27.30;67.60;;;;;;5066111;28;20047;-47
2023/02/21 07:06:52;;;;;;;7.82;7.03;;;27.30;67.70;;;;;;5065822;28;20108;-50
2023/02/21 07:09:18;;;;;;;7.60;6.72;;;27.30;67.80;;;;;;5065921;28;20017;-47
2023/02/21 07:11:45;;;;;;;7.80;7.10;;;27.20;67.80;;;;;;5065807;28;20049;-46
2023/02/21 07:14:13;;;;;;;7.50;6.78;;;27.20;67.70;;;;;;5065770;28;20051;-49
2023/02/21 07:16:39;;;;;;;8.48;6.80;;;27.20;67.90;;;;;;5065678;28;20040;-49
2023/02/21 07:19:06;;;;;;;9.07;7.50;;;27.20;67.90;;;;;;5065708;28;20036;-54
2023/02/21 07:21:33;;;;;;;9.02;7.20;;;27.20;67.90;;;;;;5065563;28;20029;-52
2023/02/21 07:23:59;;;;;;;9.30;6.65;;;27.20;68.00;;;;;;5065995;28;20413;-48
2023/02/21 07:26:26;;;;;;;9.57;6.82;;;27.10;68.00;;;;;;5065453;28;20032;-46
2023/02/21 07:28:52;;;;;;;8.13;7.05;;;27.10;68.00;;;;;;5065644;28;20013;-47
2023/02/21 07:31:19;;;;;;;8.15;6.97;;;27.10;68.50;;;;;;5065436;28;20033;-48
2023/02/21 07:33:45;;;;;;;8.20;6.80;;;27.10;67.90;;;;;;5065448;28;20280;-50
2023/02/21 07:36:12;;;;;;;8.52;7.38;;;27.10;67.80;;;;;;5065315;28;20040;-50
2023/02/21 07:38:39;;;;;;;8.15;7.35;;;27.10;68.00;;;;;;5065127;28;20035;-48
2023/02/21 07:41:05;;;;;;;8.85;6.82;;;27.00;67.80;;;;;;5065461;28;20079;-47
2023/02/21 07:43:32;;;;;;;9.15;6.85;;;27.00;68.10;;;;;;5064763;28;20202;-49
2023/02/21 07:45:59;;;;;;;7.50;6.60;;;27.00;67.90;;;;;;5065081;28;20325;-49
2023/02/21 07:48:25;;;;;;;8.20;7.25;;;27.00;68.00;;;;;;5065174;28;20025;-49
2023/02/21 07:50:52;;;;;;;6.90;6.30;;;26.90;68.00;;;;;;5065614;28;20088;-47
2023/02/21 07:53:19;;;;;;;7.07;6.47;;;27.00;68.40;;;;;;5064958;28;20112;-49
2023/02/21 07:55:45;;;;;;;10.57;7.05;;;27.00;68.80;;;;;;5064886;28;20029;-48
2023/02/21 07:58:12;;;;;;;8.00;7.15;;;27.00;69.40;;;;;;5064801;28;20111;-44
2023/02/21 08:00:38;;;;;;;13.88;6.82;;;26.90;69.70;;;;;;5065220;28;20209;-48
2023/02/21 08:03:05;;;;;;;10.35;7.25;;;26.90;70.10;;;;;;5065091;28;20037;-45
2023/02/21 08:05:32;;;;;;;8.10;7.30;;;26.90;70.60;;;;;;5065170;28;20100;-47
2023/02/21 08:07:58;;;;;;;9.93;7.25;;;26.90;71.20;;;;;;5064652;28;20036;-47
2023/02/21 08:10:27;;;;;;;8.35;7.47;;;26.90;71.40;;;;;;5065160;28;20040;-51
2023/02/21 08:12:53;;;;;;;7.45;6.72;;;26.80;71.70;;;;;;5064456;28;20068;-46
2023/02/21 08:15:20;;;;;;;8.02;7.22;;;26.80;71.80;;;;;;5064841;28;20025;-47
2023/02/21 08:17:49;;;;;;;10.68;7.63;;;26.80;72.10;;;;;;5064527;28;20335;-52
2023/02/21 08:20:17;;;;;;;9.88;7.47;;;26.80;72.50;;;;;;5064878;28;20024;-49
2023/02/21 08:22:44;;;;;;;9.10;7.82;;;26.80;72.80;;;;;;5064425;28;20021;-56
2023/02/21 08:25:12;;;;;;;9.10;8.10;;;26.70;73.00;;;;;;5064825;28;20033;-53
2023/02/21 08:27:42;;;;;;;10.52;7.90;;;26.70;73.40;;;;;;5064222;28;20025;-52
2023/02/21 08:30:13;;;;;;;8.52;7.68;;;26.70;73.60;;;;;;5064544;28;20174;-53
2023/02/21 08:32:40;;;;;;;8.52;7.72;;;26.70;73.90;;;;;;5064251;28;20060;-51
2023/02/21 08:35:07;;;;;;;9.48;8.57;;;26.70;74.20;;;;;;5064612;28;20288;-50
2023/02/21 08:37:35;;;;;;;9.25;7.90;;;26.60;74.30;;;;;;5064419;28;20032;-55
2023/02/21 08:40:03;;;;;;;9.63;8.68;;;26.60;74.50;;;;;;5064464;28;20293;-54
2023/02/21 08:42:29;;;;;;;11.77;8.38;;;26.60;74.70;;;;;;5064096;28;20032;-48
2023/02/21 08:44:56;;;;;;;10.40;8.80;;;26.60;74.90;;;;;;5064272;28;20029;-50
2023/02/21 08:47:23;;;;;;;9.57;8.13;;;26.60;74.90;;;;;;5063981;28;20224;-49
2023/02/21 08:49:49;;;;;;;9.48;8.57;;;26.60;75.00;;;;;;5064387;28;20033;-49
2023/02/21 08:52:17;;;;;;;12.75;8.95;;;26.60;75.10;;;;;;5063884;28;20079;-53
2023/02/21 08:54:44;;;;;;;9.25;8.20;;;26.60;75.20;;;;;;5063672;28;20071;-48
2023/02/21 08:57:11;;;;;;;9.73;8.57;;;26.60;75.40;;;;;;5063362;28;20040;-50
2023/02/21 08:59:44;;;;;;;9.52;8.63;;;26.60;75.60;;;;;;5063979;28;20076;-50
2023/02/21 09:02:16;;;;;;;9.95;8.95;;;26.60;75.90;;;;;;5063762;28;20068;-48
2023/02/21 09:04:43;;;;;;;11.52;8.63;;;26.50;76.00;;;;;;5063931;28;20088;-50
2023/02/21 09:07:15;;;;;;;11.38;8.85;;;26.50;76.10;;;;;;5063700;28;20285;-47
2023/02/21 09:09:43;;;;;;;14.05;9.30;;;26.50;76.10;;;;;;5064080;28;20024;-56
2023/02/21 09:12:10;;;;;;;9.15;8.35;;;26.50;76.10;;;;;;5063541;28;20048;-48
2023/02/21 09:14:38;;;;;;;9.10;8.20;;;26.50;76.10;;;;;;5064149;28;20075;-51
2023/02/21 09:17:07;;;;;;;9.45;8.48;;;26.50;76.10;;;;;;5063801;28;20096;-54
2023/02/21 09:19:34;;;;;;;10.27;9.25;;;26.50;76.20;;;;;;5063755;28;20040;-50
2023/02/21 09:22:03;;;;;;;12.10;9.43;;;26.50;76.20;;;;;;5063554;28;20112;-52
2023/02/21 09:24:30;;;;;;;9.30;8.40;;;26.50;76.40;;;;;;5063694;28;20035;-47
2023/02/21 09:27:01;;;;;;;11.50;9.05;;;26.50;76.40;;;;;;5037784;28;20025;-47
2023/02/21 09:29:33;;;;;;;10.93;9.25;;;26.40;76.50;;;;;;5063921;28;20352;-48
2023/02/21 09:32:00;;;;;;;11.18;9.07;;;26.50;76.60;;;;;;5063594;28;20040;-52
2023/02/21 09:34:28;;;;;;;10.43;9.23;;;26.40;76.80;;;;;;5063585;28;20316;-54
2023/02/21 09:36:54;;;;;;;10.13;9.07;;;26.40;76.80;;;;;;5063531;28;20103;-46
2023/02/21 09:39:22;;;;;;;13.70;9.50;;;26.40;76.90;;;;;;5063358;28;20017;-48
2023/02/21 09:41:52;;;;;;;12.20;9.13;;;26.40;76.90;;;;;;5063453;28;20028;-51
2023/02/21 09:44:26;;;;;;;12.20;9.35;;;26.40;76.90;;;;;;5063772;28;20032;-48
2023/02/21 09:46:57;;;;;;;10.95;9.85;;;26.40;77.00;;;;;;5063254;28;20032;-47
2023/02/21 09:49:36;;;;;;;12.60;10.27;;;26.40;77.30;;;;;;5063372;28;20036;-53
2023/02/21 09:52:03;;;;;;;14.95;10.55;;;26.40;77.40;;;;;;5063398;28;20025;-48
2023/02/21 09:54:38;;;;;;;12.65;10.15;;;26.30;77.30;;;;;;5063576;28;20045;-46
2023/02/21 09:57:10;;;;;;;12.73;9.50;;;26.40;77.50;;;;;;5063364;28;20017;-48
2023/02/21 09:59:36;;;;;;;11.73;9.02;;;26.30;77.50;;;;;;5063412;28;20044;-47
2023/02/21 10:02:06;;;;;;;13.20;10.00;;;26.30;77.40;;;;;;5063138;28;20040;-55
2023/02/21 10:05:02;;;;;;;10.68;9.57;;;26.40;77.30;;;;;;5063591;28;20329;-50
2023/02/21 10:08:00;;;;;;;11.98;9.45;;;26.30;77.30;;;;;;5064748;28;20059;-53
2023/02/21 10:10:57;;;;;;;15.68;8.95;;;26.30;77.10;;;;;;5067285;28;20025;-53
2023/02/21 10:13:30;;;;;;;10.88;9.60;;;26.30;77.20;;;;;;5043816;28;20045;-52
2023/02/21 10:16:14;;;;;;;13.15;9.35;;;26.30;77.20;;;;;;5042470;28;20104;-56
2023/02/21 10:19:01;;;;;;;11.10;9.00;;;26.30;77.10;;;;;;5052120;28;20033;-57
2023/02/21 10:21:50;;;;;;;12.73;9.55;;;26.30;77.00;;;;;;5066716;28;20078;-51
2023/02/21 10:24:21;;;;;;;27.55;10.98;;;26.30;76.90;;;;;;5060093;28;20364;-49
2023/02/21 10:26:58;;;;;;;15.40;9.77;;;26.30;76.90;;;;;;5046650;28;20031;-54
2023/02/21 10:29:34;;;;;;;16.73;9.85;;;26.30;76.70;;;;;;5058104;28;20032;-47
2023/02/21 10:32:03;;;;;;;15.20;10.30;;;26.30;76.80;;;;;;5052276;28;20029;-47
2023/02/21 10:34:31;;;;;;;15.05;9.88;;;26.30;76.60;;;;;;5066669;28;20020;-53
2023/02/21 10:37:06;;;;;;;15.40;9.65;;;26.30;76.40;;;;;;5066635;28;20325;-48
2023/02/21 10:39:42;;;;;;;11.90;9.65;;;26.30;76.40;;;;;;5057650;28;20244;-55
2023/02/21 10:42:21;;;;;;;16.52;9.88;;;26.30;76.20;;;;;;5057473;28;20082;-49
2023/02/21 10:44:49;;;;;;;13.02;9.63;;;26.30;76.20;;;;;;5055619;28;20156;-53
2023/02/21 10:47:25;;;;;;;17.13;9.80;;;26.30;76.10;;;;;;5056822;28;20343;-50
2023/02/21 10:50:10;;;;;;;13.82;9.10;;;26.30;76.00;;;;;;5053857;28;20013;-50
2023/02/21 10:52:56;;;;;;;13.00;9.07;;;26.30;76.10;;;;;;5049001;28;20045;-56
2023/02/21 10:55:23;;;;;;;11.77;9.52;;;26.30;76.10;;;;;;5048297;28;20194;-49
2023/02/21 10:57:54;;;;;;;11.82;8.77;;;26.30;76.10;;;;;;5052556;28;20097;-54
2023/02/21 11:00:46;;;;;;;17.10;9.18;;;26.30;76.10;;;;;;5062416;28;20025;-48
2023/02/21 11:03:19;;;;;;;13.15;8.93;;;26.30;76.10;;;;;;5065627;28;20025;-48
2023/02/21 11:05:56;;;;;;;21.38;10.23;;;26.30;76.10;;;;;;5065227;28;20031;-49
2023/02/21 11:08:43;;;;;;;16.58;10.50;;;26.30;76.30;;;;;;5050566;28;20146;-52
2023/02/21 11:11:10;;;;;;;18.77;10.90;;;26.30;76.40;;;;;;5057836;28;20074;-50
2023/02/21 11:13:37;;;;;;;21.52;10.57;;;26.30;76.60;;;;;;5080887;28;20032;-53
2023/02/21 11:16:15;;;;;;;17.75;10.45;;;26.30;76.70;;;;;;5078135;28;20036;-54
2023/02/21 11:18:42;;;;;;;16.52;10.63;;;26.30;77.00;;;;;;5065183;28;20028;-53
2023/02/21 11:21:17;;;;;;;21.67;10.25;;;26.30;77.20;;;;;;5065876;28;20028;-50
2023/02/21 11:24:03;;;;;;;14.05;9.88;;;26.30;77.00;;;;;;5065637;28;20035;-47
2023/02/21 11:26:36;;;;;;;18.02;10.10;;;25.70;78.10;;;;;;5065574;28;20096;-52
2023/02/21 11:29:15;;;;;;;20.98;10.55;;;25.30;80.20;;;;;;5065496;28;20025;-56
2023/02/21 11:31:43;;;;;;;13.50;11.00;;;25.10;80.60;;;;;;5065525;28;20021;-53
2023/02/21 11:34:14;;;;;;;16.30;11.77;;;25.00;81.80;;;;;;5076059;28;20063;-51
2023/02/21 11:36:43;;;;;;;14.02;10.52;;;24.90;82.00;;;;;;5085120;28;20032;-52
2023/02/21 11:39:26;;;;;;;21.35;12.05;;;24.90;82.20;;;;;;5085437;28;20064;-51
2023/02/21 11:42:03;;;;;;;19.45;11.32;;;25.10;81.70;;;;;;5085716;28;20024;-52
2023/02/21 11:44:35;;;;;;;18.08;11.23;;;25.40;80.80;;;;;;5085606;28;20031;-56
2023/02/21 11:47:26;;;;;;;14.30;10.27;;;25.50;79.80;;;;;;5083967;28;20024;-52
2023/02/21 11:50:19;;;;;;;16.05;10.52;;;25.70;79.60;;;;;;5085494;28;20088;-60
2023/02/21 11:52:55;;;;;;;19.48;9.75;;;25.80;79.30;;;;;;5084209;28;20190;-53
2023/02/21 11:55:24;;;;;;;17.05;10.07;;;25.90;79.10;;;;;;5085388;28;20028;-53
2023/02/21 11:58:05;;;;;;;19.50;10.23;;;25.90;78.80;;;;;;5085066;28;20016;-56
2023/02/21 12:01:00;;;;;;;13.63;9.50;;;26.00;78.80;;;;;;5085306;28;20247;-57
2023/02/21 12:03:49;;;;;;;15.30;9.95;;;26.00;78.70;;;;;;5082945;28;20346;-56
2023/02/21 12:06:40;;;;;;;16.02;9.73;;;26.00;78.60;;;;;;5085030;28;20078;-53
2023/02/21 12:09:20;;;;;;;15.23;9.38;;;26.10;78.70;;;;;;5084707;28;20313;-51
2023/02/21 12:11:56;;;;;;;26.05;10.10;;;26.20;78.50;;;;;;5084667;28;20114;-51
2023/02/21 12:14:48;;;;;;;16.60;9.70;;;26.20;78.40;;;;;;5084759;28;20020;-57
2023/02/21 12:17:26;;;;;;;18.35;9.55;;;26.10;78.30;;;;;;5084755;28;20040;-56
2023/02/21 12:20:17;;;;;;;16.27;10.00;;;26.20;78.40;;;;;;5084986;28;20012;-58
2023/02/21 12:23:14;;;;;;;18.33;9.45;;;26.20;78.50;;;;;;5084396;28;20317;-57
2023/02/21 12:25:46;;;;;;;15.95;9.77;;;26.20;78.50;;;;;;5085006;28;20036;-55
2023/02/21 12:28:47;;;;;;;16.15;9.77;;;26.20;78.40;;;;;;5066944;28;20028;-55
2023/02/21 12:31:49;;;;;;;15.70;9.77;;;26.20;78.20;;;;;;5083679;28;20252;-52
2023/02/21 12:34:41;;;;;;;12.10;9.15;;;26.30;78.50;;;;;;5084442;28;20052;-53
2023/02/21 12:37:08;;;;;;;15.02;9.65;;;26.30;78.50;;;;;;5084520;28;20036;-53
2023/02/21 12:39:52;;;;;;;12.70;9.50;;;26.30;78.60;;;;;;5084398;28;20212;-56
2023/02/21 12:42:56;;;;;;;26.42;11.35;;;26.30;78.70;;;;;;5084500;28;20034;-55
2023/02/21 12:45:42;;;;;;;27.60;12.30;;;26.30;78.60;;;;;;5033789;28;20048;-55
2023/02/21 12:48:35;;;;;;;38.08;13.32;;;26.30;78.60;;;;;;5084233;28;20088;-55
2023/02/21 12:51:10;;;;;;;37.97;11.88;;;26.30;78.70;;;;;;5080170;28;20048;-54
2023/02/21 12:54:00;;;;;;;31.67;12.10;;;26.30;78.80;;;;;;5084136;28;20008;-53
2023/02/21 12:56:47;;;;;;;26.27;12.98;;;26.30;78.60;;;;;;5084020;28;20040;-54
2023/02/21 12:59:19;;;;;;;27.60;11.73;;;26.30;78.60;;;;;;5083826;28;20224;-56
2023/02/21 13:01:54;;;;;;;21.55;10.63;;;26.40;78.70;;;;;;5084138;28;20320;-54
2023/02/21 13:04:51;;;;;;;20.77;10.52;;;26.40;78.80;;;;;;5084302;28;20024;-60
2023/02/21 13:07:27;;;;;;;20.15;10.40;;;26.40;78.80;;;;;;5076661;28;20056;-54
2023/02/21 13:10:06;;;;;;;17.05;10.05;;;26.40;78.70;;;;;;5084165;28;20021;-57
2023/02/21 13:12:53;;;;;;;16.25;10.05;;;26.50;78.70;;;;;;5084461;28;20138;-57
2023/02/21 13:15:25;;;;;;;16.35;10.30;;;26.50;78.80;;;;;;5084395;28;20020;-56
2023/02/21 13:18:15;;;;;;;12.60;9.70;;;26.50;78.80;;;;;;5084345;28;20032;-56
2023/02/21 13:20:55;;;;;;;15.85;9.38;;;26.50;78.80;;;;;;5084243;28;20012;-53
2023/02/21 13:23:58;;;;;;;16.90;9.35;;;26.50;79.10;;;;;;5084084;28;20082;-51
2023/02/21 13:26:59;;;;;;;17.73;9.57;;;26.60;79.20;;;;;;5084028;28;20070;-56
2023/02/21 13:29:31;;;;;;;15.02;10.20;;;26.60;79.10;;;;;;5083971;28;20031;-53
2023/02/21 13:32:18;;;;;;;15.15;10.38;;;26.60;79.10;;;;;;5083863;28;20079;-51
2023/02/21 13:35:07;;;;;;;14.55;9.65;;;26.60;79.20;;;;;;5084092;28;20024;-59
2023/02/21 13:37:42;;;;;;;16.75;9.80;;;26.70;78.90;;;;;;5083881;28;20025;-55
2023/02/21 13:40:30;;;;;;;14.80;9.63;;;26.70;78.80;;;;;;5084623;28;20063;-52
2023/02/21 13:43:13;;;;;;;18.17;8.95;;;26.80;78.90;;;;;;5086741;28;20016;-53
2023/02/21 13:45:40;;;;;;;;;;;26.80;78.50;;;;;;5088526;28;20043;-54
2023/02/21 13:48:06;;;;;;;13.75;9.30;;;26.90;78.50;;;;;;5087638;28;20184;-55
2023/02/21 13:50:41;;;;;;;16.80;9.63;;;26.90;78.00;;;;;;5088180;28;20025;-55
2023/02/21 13:53:20;;;;;;;18.50;9.55;;;27.00;78.20;;;;;;5087482;28;20263;-54
2023/02/21 13:55:58;;;;;;;20.92;9.65;;;27.00;77.40;;;;;;5087931;28;20036;-51
2023/02/21 13:58:45;;;;;;;19.58;10.82;;;27.10;77.10;;;;;;5087481;28;20108;-55
2023/02/21 14:01:26;;;;;;;21.00;13.32;;;27.20;76.90;;;;;;5087371;28;20225;-53
2023/02/21 14:03:56;;;;;;;17.67;12.57;;;27.20;76.40;;;;;;5083966;28;20029;-53
2023/02/21 14:06:39;;;;;;;21.02;14.65;;;27.20;76.30;;;;;;5083077;28;20364;-53
2023/02/21 14:09:09;;;;;;;;;;;27.30;75.70;;;;;;5087686;28;20048;-55
2023/02/21 14:11:42;;;;;;;22.70;15.82;;;27.30;75.60;;;;;;5087189;28;20192;-53
2023/02/21 14:14:26;;;;;;;18.77;14.82;;;27.30;75.40;;;;;;5087193;28;20085;-54
2023/02/21 14:17:13;;;;;;;18.85;14.98;;;27.30;75.40;;;;;;5087710;28;20042;-54
2023/02/21 14:19:50;;;;;;;20.85;15.50;;;27.40;75.50;;;;;;5087041;28;20032;-57
2023/02/21 14:22:30;;;;;;;18.65;15.23;;;27.30;75.30;;;;;;5087210;28;20028;-53
2023/02/21 14:25:16;;;;;;;20.17;15.50;;;27.30;75.10;;;;;;5086748;28;20362;-51
2023/02/21 14:27:43;;;;;;;20.55;16.23;;;27.40;75.10;;;;;;5087306;28;20292;-54
2023/02/21 14:30:10;;;;;;;19.27;15.32;;;27.40;74.70;;;;;;5086641;28;20031;-53
2023/02/21 14:32:56;;;;;;;16.67;14.93;;;27.40;74.70;;;;;;5087068;28;20031;-57
2023/02/21 14:35:30;;;;;;;17.73;14.63;;;27.40;74.90;;;;;;5086534;28;20029;-53
2023/02/21 14:38:05;;;;;;;22.80;15.20;;;27.40;75.00;;;;;;5086761;28;20091;-53
2023/02/21 14:40:31;;;;;;;16.30;14.32;;;27.40;75.10;;;;;;5086465;28;20025;-51
2023/02/21 14:43:19;;;;;;;18.65;14.52;;;27.50;75.00;;;;;;5086554;28;20036;-53
2023/02/21 14:46:17;;;;;;;19.13;14.30;;;27.50;74.90;;;;;;5087232;28;20032;-57
2023/02/21 14:49:25;;;;;;;23.30;14.85;;;27.50;74.70;;;;;;5086747;28;20034;-59
2023/02/21 14:52:16;;;;;;;24.75;15.63;;;27.60;74.90;;;;;;5087084;28;20358;-56
2023/02/21 14:55:21;;;;;;;20.10;14.80;;;27.60;74.80;;;;;;5085433;28;20028;-53
2023/02/21 14:57:54;;;;;;;20.60;14.93;;;27.70;74.70;;;;;;5086526;28;20051;-57
2023/02/21 15:00:31;;;;;;;17.77;14.05;;;27.70;74.60;;;;;;5086322;28;20028;-56
2023/02/21 15:03:18;;;;;;;18.25;14.63;;;27.70;74.00;;;;;;5086208;28;20040;-50
2023/02/21 15:06:11;;;;;;;21.17;14.23;;;27.80;73.80;;;;;;5084008;28;20024;-53
2023/02/21 15:08:47;;;;;;;26.10;14.23;;;27.80;73.70;;;;;;5084130;28;20071;-51
2023/02/21 15:11:36;;;;;;;20.02;13.57;;;27.80;73.60;;;;;;5086005;28;20029;-55
2023/02/21 15:14:13;;;;;;;21.17;13.00;;;27.90;73.60;;;;;;5086309;28;20244;-50
2023/02/21 15:16:52;;;;;;;18.88;13.60;;;27.90;73.60;;;;;;5086599;28;20106;-54
2023/02/21 15:19:31;;;;;;;15.50;13.13;;;27.90;73.20;;;;;;5086231;28;20360;-52
2023/02/21 15:22:25;;;;;;;19.95;13.50;;;27.90;73.20;;;;;;5086217;28;20308;-54
2023/02/21 15:25:08;;;;;;;19.20;13.38;;;28.00;73.30;;;;;;5068046;28;20037;-57
2023/02/21 15:27:56;;;;;;;15.10;12.57;;;28.00;73.30;;;;;;5086514;28;20029;-59